createdAt,value
2022-12-31T00:01:11.248Z,5.30
2022-12-31T00:03:58.449Z,4.57
2022-12-31T00:06:44.913Z,4.90
2022-12-31T00:09:31.230Z,5.25
2022-12-31T00:12:17.342Z,4.85
2022-12-31T00:15:03.564Z,5.07
2022-12-31T00:17:49.524Z,4.85
2022-12-31T00:20:35.744Z,5.22
2022-12-31T00:23:22.214Z,5.05
2022-12-31T00:26:18.835Z,5.00
2022-12-31T00:29:05.854Z,5.10
2022-12-31T00:31:51.931Z,4.90
2022-12-31T00:34:38.201Z,4.53
2022-12-31T00:37:24.300Z,4.80
2022-12-31T00:40:10.817Z,5.00
2022-12-31T00:42:57.069Z,5.00
2022-12-31T00:45:43.335Z,4.63
2022-12-31T00:48:29.810Z,4.80
2022-12-31T00:51:17.148Z,5.22
2022-12-31T00:54:03.528Z,5.22
2022-12-31T00:56:49.611Z,5.93
2022-12-31T00:59:35.853Z,5.13
2022-12-31T01:02:22.191Z,5.55
2022-12-31T01:05:08.667Z,5.60
2022-12-31T01:07:54.851Z,5.70
2022-12-31T01:10:59.589Z,5.28
2022-12-31T01:14:05.502Z,5.78
2022-12-31T01:16:53.805Z,5.47
2022-12-31T01:19:39.933Z,5.45
2022-12-31T01:22:26.110Z,6.45
2022-12-31T01:25:12.351Z,6.18
2022-12-31T01:27:58.733Z,5.57
2022-12-31T01:30:45.179Z,6.07
2022-12-31T01:33:31.258Z,5.85
2022-12-31T01:36:25.551Z,5.68
2022-12-31T01:39:12.801Z,5.85
2022-12-31T01:41:59.127Z,6.30
2022-12-31T01:44:49.533Z,6.18
2022-12-31T01:47:40.976Z,6.00
2022-12-31T01:50:31.427Z,6.82
2022-12-31T01:53:18.903Z,6.03
2022-12-31T01:56:05.485Z,6.78
2022-12-31T01:58:53.291Z,6.50
2022-12-31T02:01:39.925Z,6.10
2022-12-31T02:04:27.324Z,6.65
2022-12-31T02:07:14.019Z,6.30
2022-12-31T02:10:00.833Z,6.55
2022-12-31T02:12:47.887Z,7.57
2022-12-31T02:15:40.503Z,7.38
2022-12-31T02:18:32.800Z,7.20
2022-12-31T02:21:34.571Z,6.77
2022-12-31T02:24:33.257Z,6.43
2022-12-31T02:27:57.950Z,6.97
2022-12-31T02:30:46.974Z,7.05
2022-12-31T02:33:36.365Z,6.97
2022-12-31T02:36:28.571Z,6.88
2022-12-31T02:39:15.432Z,6.72
2022-12-31T02:42:02.111Z,7.55
2022-12-31T02:44:49.178Z,6.85
2022-12-31T02:47:54.156Z,6.80
2022-12-31T02:51:07.050Z,7.10
2022-12-31T02:54:12.235Z,7.47
2022-12-31T02:57:04.937Z,7.07
2022-12-31T03:00:11.987Z,7.35
2022-12-31T03:02:59.499Z,7.05
2022-12-31T03:05:45.872Z,7.28
2022-12-31T03:08:32.299Z,7.20
2022-12-31T03:11:38.425Z,7.00
2022-12-31T03:14:24.642Z,7.30
2022-12-31T03:17:10.687Z,7.28
2022-12-31T03:20:15.430Z,7.45
2022-12-31T03:23:01.754Z,8.10
2022-12-31T03:25:48.405Z,8.18
2022-12-31T03:28:34.841Z,8.25
2022-12-31T03:31:21.086Z,7.50
2022-12-31T03:34:07.047Z,7.90
2022-12-31T03:36:52.937Z,7.47
2022-12-31T03:39:38.992Z,8.10
2022-12-31T03:42:25.160Z,8.23
2022-12-31T03:45:12.206Z,8.02
2022-12-31T03:47:59.024Z,7.97
2022-12-31T03:50:45.535Z,7.07
2022-12-31T03:53:32.219Z,7.53
2022-12-31T03:56:18.417Z,7.63
2022-12-31T03:59:04.451Z,8.07
2022-12-31T04:01:52.478Z,8.13
2022-12-31T04:04:38.827Z,7.40
2022-12-31T04:07:25.155Z,7.82
2022-12-31T04:10:12.979Z,7.40
2022-12-31T04:13:02.375Z,7.90
2022-12-31T04:15:50.999Z,7.78
2022-12-31T04:18:37.197Z,7.65
2022-12-31T04:21:23.329Z,7.45
2022-12-31T04:24:09.813Z,7.80
2022-12-31T04:26:57.852Z,7.97
2022-12-31T04:29:46.308Z,8.27
2022-12-31T04:32:32.697Z,7.80
2022-12-31T04:35:18.848Z,7.65
2022-12-31T04:38:05.036Z,7.68
2022-12-31T04:41:10.026Z,7.43
2022-12-31T04:43:57.524Z,7.95
2022-12-31T04:46:43.961Z,7.68
2022-12-31T04:49:30.141Z,7.55
2022-12-31T04:52:16.313Z,8.30
2022-12-31T04:55:02.532Z,8.38
2022-12-31T04:57:48.654Z,7.88
2022-12-31T05:00:34.925Z,7.85
2022-12-31T05:03:21.761Z,7.72
2022-12-31T05:06:18.470Z,8.00
2022-12-31T05:09:04.919Z,8.55
2022-12-31T05:11:51.489Z,8.10
2022-12-31T05:14:37.837Z,8.32
2022-12-31T05:17:24.053Z,8.32
2022-12-31T05:20:10.460Z,8.70
2022-12-31T05:22:56.834Z,8.75
2022-12-31T05:25:44.148Z,8.55
2022-12-31T05:28:30.630Z,8.93
2022-12-31T05:31:16.740Z,9.50
2022-12-31T05:34:03.160Z,8.75
2022-12-31T05:36:49.454Z,8.88
2022-12-31T05:39:35.721Z,8.82
2022-12-31T05:42:22.521Z,9.30
2022-12-31T05:45:09.235Z,9.57
2022-12-31T05:47:55.755Z,8.98
2022-12-31T05:50:42.242Z,9.32
2022-12-31T05:53:28.473Z,9.02
2022-12-31T05:56:14.527Z,9.25
2022-12-31T05:59:00.881Z,9.00
2022-12-31T06:01:47.108Z,9.27
2022-12-31T06:04:34.067Z,8.95
2022-12-31T06:07:20.385Z,9.00
2022-12-31T06:10:06.891Z,8.70
2022-12-31T06:12:53.296Z,8.60
2022-12-31T06:15:40.200Z,9.75
2022-12-31T06:18:26.516Z,8.48
2022-12-31T06:21:12.797Z,9.25
2022-12-31T06:23:59.358Z,8.75
2022-12-31T06:26:45.784Z,9.13
2022-12-31T06:29:32.293Z,9.27
2022-12-31T06:32:18.769Z,9.02
2022-12-31T06:35:05.204Z,9.13
2022-12-31T06:37:52.833Z,9.32
2022-12-31T06:40:39.449Z,9.35
2022-12-31T06:43:25.745Z,10.20
2022-12-31T06:46:13.427Z,9.43
2022-12-31T06:48:59.596Z,9.35
2022-12-31T06:51:47.614Z,8.98
2022-12-31T06:54:34.436Z,9.95
2022-12-31T06:57:20.627Z,9.65
2022-12-31T07:00:07.005Z,8.38
2022-12-31T07:03:01.696Z,9.13
2022-12-31T07:05:51.885Z,9.90
2022-12-31T07:08:44.581Z,9.88
2022-12-31T07:11:36.694Z,9.07
2022-12-31T07:14:31.403Z,10.10
2022-12-31T07:17:20.472Z,9.45
2022-12-31T07:20:10.805Z,9.65
2022-12-31T07:22:57.426Z,9.65
2022-12-31T07:25:48.904Z,10.30
2022-12-31T07:28:53.996Z,9.32
2022-12-31T07:31:59.409Z,9.85
2022-12-31T07:34:48.856Z,9.30
2022-12-31T07:37:41.398Z,9.85
2022-12-31T07:40:37.921Z,10.10
2022-12-31T07:43:24.355Z,10.60
2022-12-31T07:46:29.249Z,10.40
2022-12-31T07:49:15.827Z,11.05
2022-12-31T07:52:02.293Z,10.93
2022-12-31T07:54:49.223Z,10.95
2022-12-31T07:57:38.303Z,10.90
2022-12-31T08:00:24.981Z,11.73
2022-12-31T08:03:14.550Z,11.63
2022-12-31T08:06:12.357Z,11.20
2022-12-31T08:09:37.316Z,12.00
2022-12-31T08:12:24.278Z,11.75
2022-12-31T08:15:17.897Z,12.60
2022-12-31T08:18:04.227Z,11.80
2022-12-31T08:20:56.569Z,12.98
2022-12-31T08:24:01.895Z,12.38
2022-12-31T08:26:53.174Z,12.95
2022-12-31T08:29:49.509Z,12.80
2022-12-31T08:32:38.714Z,12.65
2022-12-31T08:35:27.832Z,12.57
2022-12-31T08:38:23.359Z,12.48
2022-12-31T08:41:19.063Z,12.15
2022-12-31T08:44:20.122Z,13.43
2022-12-31T08:47:25.289Z,12.27
2022-12-31T08:50:16.946Z,13.80
2022-12-31T08:53:03.603Z,13.13
2022-12-31T08:55:52.359Z,13.52
2022-12-31T08:58:48.004Z,13.73
2022-12-31T09:01:43.086Z,13.10
2022-12-31T09:04:48.309Z,13.80
2022-12-31T09:07:38.005Z,13.02
2022-12-31T09:10:30.591Z,13.50
2022-12-31T09:13:31.449Z,13.10
2022-12-31T09:16:20.680Z,13.30
2022-12-31T09:19:06.877Z,15.07
2022-12-31T09:21:53.087Z,14.85
2022-12-31T09:24:39.323Z,15.27
2022-12-31T09:27:46.075Z,16.15
2022-12-31T09:30:38.459Z,15.40
2022-12-31T09:33:35.570Z,15.65
2022-12-31T09:36:31.427Z,15.88
2022-12-31T09:39:23.361Z,15.45
2022-12-31T09:42:29.398Z,16.40
2022-12-31T09:45:18.640Z,16.80
2022-12-31T09:48:20.239Z,16.42
2022-12-31T09:51:25.667Z,17.13
2022-12-31T09:54:15.383Z,16.55
2022-12-31T09:57:08.014Z,17.65
2022-12-31T09:59:57.466Z,16.88
2022-12-31T10:03:02.649Z,16.90
2022-12-31T10:06:08.276Z,18.13
2022-12-31T10:09:27.103Z,17.55
2022-12-31T10:12:32.508Z,17.25
2022-12-31T10:15:34.966Z,17.63
2022-12-31T10:18:36.986Z,17.45
2022-12-31T10:21:42.266Z,17.60
2022-12-31T10:24:44.247Z,17.98
2022-12-31T10:27:30.708Z,16.90
2022-12-31T10:30:17.640Z,18.48
2022-12-31T10:33:13.291Z,18.40
2022-12-31T10:36:10.136Z,17.88
2022-12-31T10:38:59.208Z,18.73
2022-12-31T10:41:49.151Z,18.55
2022-12-31T10:44:53.133Z,18.48
2022-12-31T10:50:37.790Z,19.60
2022-12-31T10:54:02.704Z,19.20
2022-12-31T10:56:48.853Z,19.23
2022-12-31T10:59:54.693Z,19.65
2022-12-31T11:02:41.290Z,19.80
2022-12-31T11:05:47.955Z,18.92
2022-12-31T11:08:46.971Z,19.33
2022-12-31T11:11:46.437Z,19.58
2022-12-31T11:14:47.767Z,20.88
2022-12-31T11:17:37.243Z,20.00
2022-12-31T11:20:47.076Z,19.60
2022-12-31T11:23:53.218Z,20.08
2022-12-31T11:26:57.598Z,20.73
2022-12-31T11:29:57.718Z,21.23
2022-12-31T11:32:52.518Z,21.23
2022-12-31T11:36:01.365Z,20.98
2022-12-31T11:39:13.957Z,21.05
2022-12-31T11:42:08.929Z,22.23
2022-12-31T11:45:02.205Z,21.63
2022-12-31T11:51:16.190Z,21.58
2022-12-31T11:54:21.446Z,21.23
2022-12-31T11:57:20.203Z,20.88
2022-12-31T12:00:19.168Z,21.50
2022-12-31T12:03:07.222Z,22.05
2022-12-31T12:05:53.546Z,21.88
2022-12-31T12:08:39.863Z,22.17
2022-12-31T12:11:26.895Z,20.98
2022-12-31T12:14:20.631Z,21.90
2022-12-31T12:19:56.743Z,21.52
2022-12-31T12:22:49.738Z,21.80
2022-12-31T12:25:43.514Z,20.90
2022-12-31T12:28:31.442Z,21.30
2022-12-31T12:31:22.381Z,22.10
2022-12-31T12:34:23.397Z,23.40
2022-12-31T12:37:39.225Z,22.23
2022-12-31T12:40:33.414Z,22.20
2022-12-31T12:43:24.733Z,23.50
2022-12-31T12:46:20.362Z,22.45
2022-12-31T12:49:06.784Z,22.38
2022-12-31T12:51:59.353Z,22.17
2022-12-31T12:55:04.652Z,21.92
2022-12-31T12:58:01.164Z,22.85
2022-12-31T13:00:47.597Z,23.20
2022-12-31T13:04:07.417Z,22.83
2022-12-31T13:07:02.013Z,23.00
2022-12-31T13:10:01.547Z,23.88
2022-12-31T13:13:22.680Z,24.48
2022-12-31T13:15:58.128Z,24.33
2022-12-31T13:18:47.368Z,24.00
2022-12-31T13:21:38.284Z,23.38
2022-12-31T13:24:37.250Z,24.35
2022-12-31T13:27:31.956Z,23.95
2022-12-31T13:30:20.382Z,23.33
2022-12-31T13:33:21.367Z,23.67
2022-12-31T13:36:24.798Z,25.13
2022-12-31T13:39:23.676Z,24.23
2022-12-31T13:42:17.812Z,24.58
2022-12-31T13:45:10.729Z,24.45
2022-12-31T13:48:33.725Z,25.27
2022-12-31T13:51:38.532Z,26.20
2022-12-31T13:54:39.844Z,26.63
2022-12-31T13:57:29.553Z,27.25
2022-12-31T14:00:22.982Z,27.95
2022-12-31T14:03:12.307Z,27.27
2022-12-31T14:06:17.792Z,28.30
2022-12-31T14:09:05.610Z,27.45
2022-12-31T14:12:10.787Z,28.40
2022-12-31T14:15:06.436Z,28.05
2022-12-31T14:18:10.720Z,29.73
2022-12-31T14:20:57.363Z,29.50
2022-12-31T14:23:53.684Z,29.35
2022-12-31T14:26:42.128Z,29.42
2022-12-31T14:29:33.546Z,30.15
2022-12-31T14:32:22.951Z,30.23
2022-12-31T14:35:15.150Z,30.27
2022-12-31T14:38:01.177Z,30.17
2022-12-31T14:40:59.453Z,31.38
2022-12-31T14:43:53.889Z,31.77
2022-12-31T14:46:49.290Z,31.75
2022-12-31T14:49:41.595Z,30.52
2022-12-31T14:52:27.779Z,31.80
2022-12-31T14:55:23.410Z,32.22
2022-12-31T14:58:39.109Z,32.47
2022-12-31T15:01:26.604Z,33.85
2022-12-31T15:04:15.789Z,35.45
2022-12-31T15:07:12.377Z,35.90
2022-12-31T15:09:58.727Z,34.35
2022-12-31T15:12:51.073Z,35.53
2022-12-31T15:15:55.775Z,35.38
2022-12-31T15:18:57.426Z,34.38
2022-12-31T15:22:02.714Z,34.47
2022-12-31T15:24:49.022Z,35.33
2022-12-31T15:27:36.814Z,36.95
2022-12-31T15:30:29.187Z,41.22
2022-12-31T15:33:35.686Z,40.15
2022-12-31T15:36:23.862Z,38.95
2022-12-31T15:39:13.126Z,37.85
2022-12-31T15:42:36.924Z,38.50
2022-12-31T15:45:08.585Z,38.08
2022-12-31T15:47:57.852Z,35.75
2022-12-31T15:50:44.099Z,38.20
2022-12-31T15:53:34.256Z,36.60
2022-12-31T15:56:33.199Z,35.33
2022-12-31T15:59:19.829Z,37.50
2022-12-31T16:02:17.330Z,38.50
2022-12-31T16:05:04.313Z,35.70
2022-12-31T16:07:53.587Z,35.08
2022-12-31T16:10:40.108Z,38.33
2022-12-31T16:13:26.825Z,36.83
2022-12-31T16:16:30.054Z,42.80
2022-12-31T16:19:27.943Z,35.80
2022-12-31T16:22:26.009Z,34.97
2022-12-31T16:25:30.675Z,34.95
2022-12-31T16:28:20.064Z,34.20
2022-12-31T16:31:16.062Z,34.15
2022-12-31T16:34:07.091Z,34.20
2022-12-31T16:36:57.767Z,33.50
2022-12-31T16:40:04.408Z,34.10
2022-12-31T16:42:53.163Z,34.30
2022-12-31T16:45:39.619Z,36.30
2022-12-31T16:48:26.575Z,33.65
2022-12-31T16:51:17.031Z,34.13
2022-12-31T16:54:03.538Z,33.17
2022-12-31T16:56:49.998Z,33.65
2022-12-31T16:59:40.104Z,33.22
2022-12-31T17:02:40.561Z,33.47
2022-12-31T17:05:28.202Z,33.35
2022-12-31T17:08:25.327Z,42.08
2022-12-31T17:11:31.762Z,38.65
2022-12-31T17:14:19.771Z,33.42
2022-12-31T17:17:07.607Z,32.40
2022-12-31T17:19:58.440Z,32.65
2022-12-31T17:22:45.131Z,31.25
2022-12-31T17:25:33.213Z,30.92
2022-12-31T17:28:24.295Z,32.15
2022-12-31T17:31:27.653Z,31.52
2022-12-31T17:34:13.992Z,30.70
2022-12-31T17:37:02.170Z,30.25
2022-12-31T17:39:49.465Z,30.95
2022-12-31T17:42:38.023Z,30.63
2022-12-31T17:45:24.265Z,29.23
2022-12-31T17:48:15.343Z,28.40
2022-12-31T17:51:02.089Z,28.70
2022-12-31T17:53:49.072Z,27.98
2022-12-31T17:56:35.406Z,28.08
2022-12-31T17:59:29.837Z,28.58
2022-12-31T18:02:16.439Z,28.42
2022-12-31T18:05:02.556Z,29.15
2022-12-31T18:07:48.572Z,28.98
2022-12-31T18:10:36.606Z,31.23
2022-12-31T18:13:24.765Z,30.98
2022-12-31T18:16:11.013Z,30.13
2022-12-31T18:18:58.511Z,28.98
2022-12-31T18:21:45.172Z,30.60
2022-12-31T18:24:31.691Z,33.63
2022-12-31T18:27:19.501Z,30.85
2022-12-31T18:30:07.632Z,31.48
2022-12-31T18:32:54.788Z,39.60
2022-12-31T18:36:08.195Z,36.92
2022-12-31T18:38:49.903Z,32.53
2022-12-31T18:41:39.761Z,29.60
2022-12-31T18:44:25.900Z,28.75
2022-12-31T18:47:16.365Z,29.27
2022-12-31T18:50:02.735Z,26.13
2022-12-31T18:52:48.861Z,26.52
2022-12-31T18:55:42.731Z,27.27
2022-12-31T18:58:29.242Z,27.15
2022-12-31T19:01:27.930Z,26.92
2022-12-31T19:04:27.961Z,26.42
2022-12-31T19:07:15.044Z,25.60
2022-12-31T19:10:01.389Z,26.23
2022-12-31T19:12:47.894Z,26.58
2022-12-31T19:15:39.328Z,25.70
2022-12-31T19:18:25.638Z,26.05
2022-12-31T19:21:16.930Z,26.58
2022-12-31T19:24:02.968Z,25.08
2022-12-31T19:26:49.249Z,25.88
2022-12-31T19:29:36.152Z,27.65
2022-12-31T19:32:22.387Z,27.65
2022-12-31T19:35:09.685Z,26.80
2022-12-31T19:37:56.156Z,27.05
2022-12-31T19:40:42.667Z,27.60
2022-12-31T19:43:29.288Z,29.48
2022-12-31T19:46:17.289Z,28.67
2022-12-31T19:49:03.543Z,27.67
2022-12-31T19:51:50.066Z,30.63
2022-12-31T19:54:36.418Z,32.90
2022-12-31T19:57:22.574Z,30.83
2022-12-31T20:00:09.494Z,27.95
2022-12-31T20:02:59.264Z,26.92
2022-12-31T20:05:46.537Z,25.67
2022-12-31T20:08:32.638Z,26.77
2022-12-31T20:11:20.247Z,25.50
2022-12-31T20:14:06.508Z,26.95
2022-12-31T20:16:52.907Z,26.40
2022-12-31T20:19:39.394Z,26.52
2022-12-31T20:22:25.422Z,26.27
2022-12-31T20:25:11.653Z,38.25
2022-12-31T20:27:58.467Z,46.20
2022-12-31T20:30:44.605Z,39.25
2022-12-31T20:33:31.156Z,32.40
2022-12-31T20:36:17.975Z,30.70
2022-12-31T20:39:04.387Z,31.98
2022-12-31T20:41:50.792Z,28.05
2022-12-31T20:44:37.292Z,23.60
2022-12-31T20:47:23.508Z,24.13
2022-12-31T20:50:11.885Z,25.88
2022-12-31T20:52:58.855Z,36.42
2022-12-31T20:55:44.983Z,69.80
2022-12-31T20:58:31.294Z,91.88
2022-12-31T21:01:18.126Z,56.17
2022-12-31T21:04:06.694Z,77.43
2022-12-31T21:06:53.205Z,44.17
2022-12-31T21:09:39.835Z,412.88
2022-12-31T21:12:44.329Z,436.85
2022-12-31T21:15:30.705Z,232.07
2022-12-31T21:18:17.043Z,139.10
2022-12-31T21:21:03.630Z,98.43
2022-12-31T21:23:49.719Z,83.40
2022-12-31T21:26:35.883Z,64.00
2022-12-31T21:29:21.989Z,54.65
2022-12-31T21:32:08.257Z,61.05
2022-12-31T21:35:23.160Z,61.22
2022-12-31T21:38:01.813Z,37.75
2022-12-31T21:40:47.986Z,31.75
2022-12-31T21:43:35.087Z,25.67
2022-12-31T21:46:21.351Z,25.67
2022-12-31T21:49:07.335Z,60.20
2022-12-31T21:52:12.086Z,25.90
2022-12-31T21:55:18.110Z,21.70
2022-12-31T22:01:37.181Z,28.83
2022-12-31T22:05:00.367Z,118.72
2022-12-31T22:07:29.890Z,105.18
2022-12-31T22:10:15.986Z,301.65
2022-12-31T22:13:02.034Z,751.17
2022-12-31T22:15:49.334Z,698.53
2022-12-31T22:18:39.047Z,627.20
2022-12-31T22:21:26.852Z,571.95
2022-12-31T22:24:13.370Z,383.42
2022-12-31T22:27:27.806Z,275.92
2022-12-31T22:30:08.432Z,240.68
2022-12-31T22:32:54.493Z,218.27
2022-12-31T22:35:40.857Z,152.77
2022-12-31T22:38:27.885Z,132.00
2022-12-31T22:41:15.442Z,91.60
2022-12-31T22:44:04.804Z,75.20
2022-12-31T22:46:51.764Z,66.72
2022-12-31T22:49:38.387Z,64.72
2022-12-31T22:52:24.462Z,61.15
2022-12-31T22:55:10.830Z,50.20
2022-12-31T22:57:57.409Z,43.63
2022-12-31T23:00:43.488Z,39.15
2022-12-31T23:03:29.699Z,39.28
2022-12-31T23:06:16.358Z,33.80
2022-12-31T23:09:20.849Z,29.65
2022-12-31T23:12:08.377Z,29.98
2022-12-31T23:15:13.549Z,34.22
2022-12-31T23:18:18.667Z,34.45
2022-12-31T23:21:29.130Z,40.67
2022-12-31T23:24:22.784Z,61.13
2022-12-31T23:27:17.490Z,56.20
2022-12-31T23:30:03.769Z,42.10
2022-12-31T23:32:50.541Z,41.42
2022-12-31T23:35:37.009Z,38.38
2022-12-31T23:38:23.253Z,35.45
2022-12-31T23:41:16.112Z,31.65
2022-12-31T23:44:02.956Z,27.70
2022-12-31T23:46:49.501Z,21.75
2022-12-31T23:49:35.621Z,21.42
2022-12-31T23:52:21.674Z,23.73
2022-12-31T23:55:07.996Z,21.85
2022-12-31T23:57:54.243Z,19.60
